Yatesboro, Pennsylvania
Current Conditions -  °F | °C
As of 4:35 AM on Thursday 18 Dec 2014 (Local Time) from KIDI Reporting Station
Haze Haze  
Wind Chill: 20°   Ceiling: 2200
Heat Index: 27°   Visibility: 4mi
Dew Point: 21°   Wind: 6mph
Humidity: 80%   Direction: 310°NW
Pressure: 30.15"   Gusts: 18mph
Location:  40.8°N, 79.33°W
Report Text: KIDI 180935Z AUTO 31005G16KT 4SM HZ FEW009 BKN022 OVC028 M03/M06 A3015 RMK A01
Loading
Personal Weather Stations






























Interactive Weather Map New forecast layout! Learn more

10-Day Weather Forecast

Advertisements
Track Severe Weather on mobile